createdAt,value
2022-09-23T00:00:00.298Z,7.10
2022-09-23T00:05:01.802Z,7.18
2022-09-23T00:10:03.389Z,7.02
2022-09-23T00:15:05.332Z,7.06
2022-09-23T00:20:09.352Z,7.09
2022-09-23T00:25:11.980Z,7.04
2022-09-23T00:30:13.466Z,6.89
2022-09-23T00:35:15.320Z,6.71
2022-09-23T00:40:16.942Z,6.77
2022-09-23T00:45:19.504Z,6.70
2022-09-23T00:50:37.908Z,6.67
2022-09-23T00:55:45.948Z,6.66
2022-09-23T01:00:47.499Z,6.64
2022-09-23T01:05:49.312Z,6.76
2022-09-23T01:10:58.959Z,6.73
2022-09-23T01:16:09.851Z,6.69
2022-09-23T01:21:18.026Z,6.62
2022-09-23T01:26:59.110Z,6.87
2022-09-23T01:32:26.256Z,7.20
2022-09-23T01:37:46.906Z,7.56
2022-09-23T01:42:58.208Z,7.83
2022-09-23T01:48:12.824Z,7.89
2022-09-23T01:53:23.945Z,7.91
2022-09-23T01:58:33.152Z,7.97
2022-09-23T02:03:42.590Z,8.07
2022-09-23T02:08:51.500Z,8.00
2022-09-23T02:14:11.355Z,8.02
2022-09-23T02:19:15.383Z,7.93
2022-09-23T02:24:25.986Z,7.89
2022-09-23T02:29:49.389Z,7.82
2022-09-23T02:35:15.687Z,7.29
2022-09-23T02:40:23.590Z,7.32
2022-09-23T02:45:25.275Z,7.03
2022-09-23T02:50:26.829Z,6.87
2022-09-23T02:55:32.432Z,6.80
2022-09-23T03:00:50.184Z,6.85
2022-09-23T03:05:59.014Z,6.99
2022-09-23T03:11:06.266Z,7.18
2022-09-23T03:16:32.045Z,7.28
2022-09-23T03:22:08.539Z,7.27
2022-09-23T03:27:16.226Z,7.43
2022-09-23T03:32:21.878Z,7.61
2022-09-23T03:37:31.303Z,7.57
2022-09-23T03:42:34.351Z,7.60
2022-09-23T03:47:36.392Z,7.49
2022-09-23T03:52:39.756Z,7.66
2022-09-23T03:57:41.242Z,7.61
2022-09-23T04:02:43.714Z,7.62
2022-09-23T04:07:45.688Z,7.61
2022-09-23T04:12:47.199Z,7.66
2022-09-23T04:17:48.706Z,7.72
2022-09-23T04:22:50.250Z,7.68
2022-09-23T04:27:51.729Z,7.68
2022-09-23T04:32:53.416Z,7.68
2022-09-23T04:37:54.945Z,7.44
2022-09-23T04:42:56.510Z,7.49
2022-09-23T04:47:58.483Z,7.44
2022-09-23T04:53:00.109Z,7.50
2022-09-23T04:58:01.615Z,7.51
2022-09-23T05:03:03.418Z,7.51
2022-09-23T05:08:04.883Z,7.51
2022-09-23T05:13:06.343Z,7.56
2022-09-23T05:18:07.910Z,7.50
2022-09-23T05:23:09.383Z,7.53
2022-09-23T05:28:10.883Z,7.51
2022-09-23T05:33:12.717Z,7.51
2022-09-23T05:38:16.779Z,7.70
2022-09-23T05:43:18.243Z,7.81
2022-09-23T05:48:19.792Z,7.99
2022-09-23T05:53:21.314Z,8.34
2022-09-23T05:58:24.185Z,8.37
2022-09-23T06:03:25.994Z,8.52
2022-09-23T06:08:27.884Z,8.70
2022-09-23T06:13:29.355Z,8.96
2022-09-23T06:18:30.862Z,9.43
2022-09-23T06:23:33.263Z,9.71
2022-09-23T06:28:37.435Z,9.70
2022-09-23T06:33:39.259Z,9.66
2022-09-23T06:38:44.140Z,9.70
2022-09-23T06:43:45.655Z,9.59
2022-09-23T06:48:49.114Z,9.67
2022-09-23T06:53:50.681Z,9.74
2022-09-23T06:58:52.818Z,9.79
2022-09-23T07:03:54.367Z,9.83
2022-09-23T07:08:55.842Z,9.91
2022-09-23T07:13:57.668Z,10.06
2022-09-23T07:18:59.345Z,10.11
2022-09-23T07:24:01.199Z,10.27
2022-09-23T07:29:05.545Z,10.35
2022-09-23T07:34:09.896Z,10.61
2022-09-23T07:39:12.640Z,10.66
2022-09-23T07:44:14.139Z,10.73
2022-09-23T07:49:16.029Z,10.99
2022-09-23T07:54:18.291Z,11.24
2022-09-23T07:59:19.846Z,11.26
2022-09-23T08:04:22.659Z,11.38
2022-09-23T08:09:31.960Z,11.68
2022-09-23T08:14:33.513Z,12.00
2022-09-23T08:19:50.123Z,12.20
2022-09-23T08:24:52.410Z,11.91
2022-09-23T08:29:55.309Z,12.10
2022-09-23T08:34:56.928Z,12.41
2022-09-23T08:39:59.634Z,12.81
2022-09-23T08:45:05.371Z,12.97
2022-09-23T08:50:17.986Z,13.13
2022-09-23T08:55:24.011Z,13.90
2022-09-23T09:00:40.545Z,13.77
2022-09-23T09:05:42.067Z,14.07
2022-09-23T09:10:46.702Z,14.41
2022-09-23T09:16:16.019Z,14.62
2022-09-23T09:21:17.639Z,14.36
2022-09-23T09:26:28.098Z,14.68
2022-09-23T09:31:33.532Z,14.79
2022-09-23T09:36:45.691Z,14.31
2022-09-23T09:41:52.935Z,14.93
2022-09-23T09:47:20.760Z,14.54
2022-09-23T09:52:29.541Z,14.52
2022-09-23T09:57:38.138Z,14.82
2022-09-23T10:02:39.913Z,14.84
2022-09-23T10:07:41.450Z,14.95
2022-09-23T10:12:46.777Z,15.20
2022-09-23T10:17:51.244Z,15.44
2022-09-23T10:22:53.083Z,15.89
2022-09-23T10:27:54.705Z,15.60
2022-09-23T10:32:57.022Z,15.78
2022-09-23T10:38:01.856Z,16.06
2022-09-23T10:43:40.607Z,15.66
2022-09-23T10:49:01.000Z,15.88
2022-09-23T10:54:14.257Z,15.89
2022-09-23T10:59:52.106Z,16.45
2022-09-23T11:05:05.933Z,16.58
2022-09-23T11:10:49.884Z,16.77
2022-09-23T11:16:06.738Z,16.56
2022-09-23T11:21:31.811Z,16.68
2022-09-23T11:26:43.017Z,15.94
2022-09-23T11:32:04.644Z,16.27
2022-09-23T11:37:14.096Z,16.56
2022-09-23T11:42:28.923Z,16.30
2022-09-23T11:47:43.870Z,16.06
2022-09-23T11:52:51.925Z,16.34
2022-09-23T11:57:57.520Z,16.08
2022-09-23T12:03:09.783Z,16.43
2022-09-23T12:08:29.088Z,16.54
2022-09-23T12:14:01.381Z,16.51
2022-09-23T12:19:21.940Z,16.55
2022-09-23T12:24:56.718Z,16.75
2022-09-23T12:30:21.649Z,16.31
2022-09-23T12:35:32.121Z,16.69
2022-09-23T12:40:40.170Z,16.67
2022-09-23T12:45:42.032Z,17.07
2022-09-23T12:51:16.373Z,17.39
2022-09-23T12:56:24.550Z,16.95
2022-09-23T13:01:27.102Z,17.01
2022-09-23T13:06:40.945Z,17.23
2022-09-23T13:11:45.391Z,17.25
2022-09-23T13:16:47.987Z,17.28
2022-09-23T13:21:50.684Z,17.61
2022-09-23T13:27:15.234Z,17.58
2022-09-23T13:32:19.007Z,17.29
2022-09-23T13:37:23.824Z,17.08
2022-09-23T13:42:30.368Z,16.91
2022-09-23T13:47:35.988Z,17.00
2022-09-23T13:52:37.532Z,16.96
2022-09-23T13:57:38.999Z,17.26
2022-09-23T14:02:44.304Z,16.95
2022-09-23T14:07:49.833Z,16.96
2022-09-23T14:12:52.872Z,17.05
2022-09-23T14:18:02.254Z,17.00
2022-09-23T14:23:10.924Z,16.89
2022-09-23T14:28:18.185Z,16.88
2022-09-23T14:33:28.710Z,16.89
2022-09-23T14:38:49.453Z,16.78
2022-09-23T14:43:55.007Z,16.69
2022-09-23T14:49:17.309Z,16.78
2022-09-23T14:54:41.376Z,16.71
2022-09-23T14:59:51.447Z,16.74
2022-09-23T15:05:35.742Z,16.65
2022-09-23T15:10:39.808Z,16.71
2022-09-23T15:15:42.676Z,16.57
2022-09-23T15:20:57.484Z,16.50
2022-09-23T15:26:06.021Z,16.51
2022-09-23T15:31:11.561Z,16.52
2022-09-23T15:36:27.749Z,16.43
2022-09-23T15:41:29.991Z,16.42
2022-09-23T15:46:33.639Z,16.40
2022-09-23T15:51:37.328Z,16.30
2022-09-23T15:56:38.863Z,16.39
2022-09-23T16:01:42.875Z,16.29
2022-09-23T16:06:45.423Z,16.16
2022-09-23T16:11:49.273Z,16.15
2022-09-23T16:16:50.762Z,16.04
2022-09-23T16:21:52.333Z,16.03
2022-09-23T16:26:59.746Z,16.00
2022-09-23T16:32:01.978Z,16.05
2022-09-23T16:37:04.771Z,15.96
2022-09-23T16:42:06.548Z,15.91
2022-09-23T16:47:08.690Z,15.84
2022-09-23T16:52:11.593Z,15.53
2022-09-23T16:57:17.365Z,15.51
2022-09-23T17:02:37.652Z,15.31
2022-09-23T17:07:39.242Z,15.31
2022-09-23T17:12:40.904Z,15.09
2022-09-23T17:17:42.952Z,15.16
2022-09-23T17:22:44.453Z,15.04
2022-09-23T17:27:48.314Z,14.98
2022-09-23T17:32:52.663Z,14.73
2022-09-23T17:37:54.392Z,14.72
2022-09-23T17:42:56.351Z,14.71
2022-09-23T17:47:57.855Z,14.73
2022-09-23T17:53:00.395Z,14.65
2022-09-23T17:58:01.931Z,14.50
2022-09-23T18:03:04.000Z,14.42
2022-09-23T18:08:06.193Z,14.17
2022-09-23T18:13:07.882Z,14.06
2022-09-23T18:18:09.388Z,13.96
2022-09-23T18:23:10.913Z,13.99
2022-09-23T18:28:12.400Z,13.91
2022-09-23T18:33:15.256Z,13.82
2022-09-23T18:38:16.762Z,13.92
2022-09-23T18:43:19.908Z,13.88
2022-09-23T18:48:40.209Z,13.99
2022-09-23T18:53:42.009Z,13.85
2022-09-23T18:58:48.195Z,13.91
2022-09-23T19:03:55.297Z,13.52
2022-09-23T19:08:59.064Z,13.37
2022-09-23T19:14:01.475Z,13.30
2022-09-23T19:19:04.525Z,13.28
2022-09-23T19:24:07.500Z,13.32
2022-09-23T19:29:14.170Z,13.08
2022-09-23T19:34:19.313Z,13.15
2022-09-23T19:39:27.032Z,13.08
2022-09-23T19:44:28.635Z,13.20
2022-09-23T19:49:31.083Z,13.15
2022-09-23T19:54:32.872Z,13.05
2022-09-23T19:59:34.572Z,13.16
2022-09-23T20:04:36.139Z,13.21
2022-09-23T20:09:37.713Z,13.21
2022-09-23T20:14:39.228Z,13.05
2022-09-23T20:19:40.814Z,13.08
2022-09-23T20:24:42.318Z,13.07
2022-09-23T20:29:43.991Z,13.13
2022-09-23T20:34:49.707Z,13.12
2022-09-23T20:39:52.671Z,13.05
2022-09-23T20:44:54.936Z,13.00
2022-09-23T20:49:56.498Z,12.96
2022-09-23T20:54:58.637Z,12.93
2022-09-23T21:00:00.281Z,12.80
2022-09-23T21:05:01.818Z,12.83
2022-09-23T21:10:06.840Z,12.72
2022-09-23T21:15:08.694Z,12.70
2022-09-23T21:20:12.338Z,12.64
2022-09-23T21:25:27.587Z,12.68
2022-09-23T21:30:30.038Z,12.44
2022-09-23T21:35:31.577Z,12.40
2022-09-23T21:40:51.406Z,12.61
2022-09-23T21:46:05.267Z,12.57
2022-09-23T21:51:10.046Z,12.56
2022-09-23T21:56:19.655Z,12.49
2022-09-23T22:01:23.697Z,12.28
2022-09-23T22:06:27.588Z,12.22
2022-09-23T22:11:50.202Z,12.32
2022-09-23T22:16:57.497Z,12.29
2022-09-23T22:21:59.293Z,12.44
2022-09-23T22:27:00.849Z,12.37
2022-09-23T22:32:22.486Z,12.43
2022-09-23T22:37:34.381Z,12.36
2022-09-23T22:42:36.575Z,12.35
2022-09-23T22:47:39.774Z,12.31
2022-09-23T22:52:41.329Z,12.32
2022-09-23T22:57:42.918Z,12.32
2022-09-23T23:02:45.471Z,12.33
2022-09-23T23:07:47.054Z,12.33
2022-09-23T23:12:49.512Z,12.36
2022-09-23T23:17:53.702Z,12.42
2022-09-23T23:22:55.244Z,12.38
2022-09-23T23:27:57.918Z,12.37
2022-09-23T23:32:59.441Z,12.34
2022-09-23T23:38:00.959Z,12.29
2022-09-23T23:43:03.626Z,12.33
2022-09-23T23:48:05.168Z,12.32
2022-09-23T23:53:06.719Z,12.32
2022-09-23T23:58:08.254Z,12.29
